Lewistown, Ohio
Current Conditions -  °F | °C
As of 9:10 AM on Monday 24 Nov 2014 (Local Time) from KEDJ Reporting Station
Broken Clouds Broken Clouds  
Wind Chill: 57°   Ceiling: 3200
Heat Index: 57°   Visibility: 9mi
Dew Point: 52°   Wind: 28mph
Humidity: 82%   Direction: 200°SSW
Pressure: 29.24"   Gusts: 38mph
Location:  40.42°N, 83.88°W
Report Text: KEDJ 241410Z AUTO 20024G33KT 9SM BKN032 BKN039 BKN050 14/11 A2924 RMK AO1
Loading
Personal Weather Stations






























Interactive Weather Map New forecast layout! Learn more

10-Day Weather Forecast

Advertisements
Track Severe Weather on mobile